Terminal Aerodrome Forecast
Issued by NWS Missoula, MT

Home | Current Version | Previous Version | Text Only | Print | Product List | Glossary On
Versions: 1 2 3 4 5 6 7 8 9 10 11 12 13 14 15
000
FTUS45 KMSO 211726
TAFBTM
TAF
KBTM 211726Z 2118/2218 29012KT P6SM VCSH BKN035 OVC050
     FM212000 30023G33KT P6SM -SHSNRA OVC040
     FM220100 30010KT P6SM VCSH OVC050
     FM220700 30010KT P6SM -SHSN BKN035 OVC050=

USA.gov is the U.S. government's official web portal to all federal, state and local government web resources and services.